Time;durP1;ratioP1;P1;durP2;ratioP2;P2;SDS_P1;SDS_P2;PMS_P1;PMS_P2;Temp;Humidity;BMP_temperature;BMP_pressure;BME280_temperature;BME280_humidity;BME280_pressure;Samples;Min_cycle;Max_cycle;Signal;HPM_P1;HPM_P2
2022/09/22 00:01:03;;;;;;;28.90;7.35;;;;;;;;;;4935384;29;20039;-49
2022/09/22 00:03:31;;;;;;;24.73;7.32;;;;;;;;;;4934439;29;20038;-49
2022/09/22 00:05:59;;;;;;;22.98;7.75;;;;;;;;;;4935222;29;20464;-52
2022/09/22 00:08:27;;;;;;;25.58;7.88;;;;;;;;;;4933274;29;20031;-50
2022/09/22 00:11:00;;;;;;;19.73;6.88;;;;;;;;;;4933286;29;20114;-50
2022/09/22 00:13:27;;;;;;;20.25;6.47;;;;;;;;;;4933856;29;20035;-48
2022/09/22 00:15:54;;;;;;;23.58;6.70;;;;;;;;;;4934934;29;20512;-48
2022/09/22 00:18:21;;;;;;;31.55;7.85;;;;;;;;;;4934107;29;20078;-51
2022/09/22 00:20:48;;;;;;;25.10;7.78;;;;;;;;;;4933509;29;20168;-49
2022/09/22 00:23:15;;;;;;;24.15;7.85;;;;;;;;;;4933556;29;20039;-49
2022/09/22 00:25:42;;;;;;;24.25;7.75;;;;;;;;;;4934468;29;20114;-49
2022/09/22 00:28:11;;;;;;;26.85;7.50;;;;;;;;;;4934566;29;20032;-47
2022/09/22 00:30:42;;;;;;;23.15;7.45;;;;;;;;;;4935099;29;20058;-48
2022/09/22 00:33:10;;;;;;;26.88;7.60;;;;;;;;;;4933264;29;20058;-50
2022/09/22 00:35:37;;;;;;;26.52;7.05;;;;;;;;;;4933700;29;20032;-52
2022/09/22 00:38:07;;;;;;;25.58;7.93;;;;;;;;;;4932548;29;20070;-52
2022/09/22 00:40:35;;;;;;;22.10;8.05;;;;;;;;;;4934960;29;20122;-48
2022/09/22 00:43:15;;;;;;;29.77;8.07;;;;;;;;;;4935250;29;20024;-45
2022/09/22 00:45:42;;;;;;;23.05;7.43;;;;;;;;;;4935130;29;20027;-47
2022/09/22 00:48:10;;;;;;;26.73;7.35;;;;;;;;;;4934255;29;20055;-51
2022/09/22 00:50:37;;;;;;;21.85;7.72;;;;;;;;;;4935015;29;20032;-51
2022/09/22 00:53:07;;;;;;;25.73;7.43;;;;;;;;;;4934434;29;20505;-55
2022/09/22 00:55:36;;;;;;;28.75;7.50;;;;;;;;;;4934260;29;20035;-48
2022/09/22 00:58:06;;;;;;;22.60;6.88;;;;;;;;;;4934470;29;20039;-48
2022/09/22 01:00:33;;;;;;;26.73;7.68;;;;;;;;;;4935178;29;20493;-55
2022/09/22 01:03:02;;;;;;;28.50;7.28;;;;;;;;;;4934703;29;20039;-46
2022/09/22 01:05:30;;;;;;;19.10;6.63;;;;;;;;;;4935230;29;20024;-46
2022/09/22 01:07:57;;;;;;;21.65;7.60;;;;;;;;;;4934699;29;20031;-47
2022/09/22 01:10:25;;;;;;;21.98;6.90;;;;;;;;;;4934977;29;20486;-48
2022/09/22 01:13:15;;;;;;;20.15;6.47;;;;;;;;;;4934915;29;20406;-46
2022/09/22 01:16:00;;;;;;;21.08;6.55;;;;;;;;;;4925560;29;20040;-46
2022/09/22 01:18:39;;;;;;;21.77;7.22;;;;;;;;;;4934832;29;20119;-46
2022/09/22 01:21:12;;;;;;;15.52;6.38;;;;;;;;;;4934817;29;20032;-48
2022/09/22 01:23:57;;;;;;;18.77;6.70;;;;;;;;;;4934921;29;20074;-48
2022/09/22 01:26:27;;;;;;;18.42;6.35;;;;;;;;;;4934767;29;20458;-47
2022/09/22 01:28:54;;;;;;;17.02;6.70;;;;;;;;;;4934882;29;20042;-48
2022/09/22 01:31:45;;;;;;;16.83;5.90;;;;;;;;;;4935140;29;20024;-49
2022/09/22 01:34:27;;;;;;;17.38;5.43;;;;;;;;;;4933446;29;20024;-47
2022/09/22 01:36:54;;;;;;;;;;;;;;;;;;4935475;29;20028;-46
2022/09/22 01:39:25;;;;;;;17.63;5.57;;;;;;;;;;4934916;29;19925;-48
2022/09/22 01:42:01;;;;;;;23.03;6.33;;;;;;;;;;4934716;29;20043;-45
2022/09/22 01:44:40;;;;;;;24.98;6.18;;;;;;;;;;4934934;29;20268;-46
2022/09/22 01:47:26;;;;;;;19.13;5.50;;;;;;;;;;4933784;29;20209;-53
2022/09/22 01:49:54;;;;;;;18.75;5.50;;;;;;;;;;4934202;29;20382;-48
2022/09/22 01:52:32;;;;;;;22.52;6.20;;;;;;;;;;4933622;29;20438;-48
2022/09/22 01:55:08;;;;;;;15.20;5.57;;;;;;;;;;4934185;29;20044;-47
2022/09/22 01:57:35;;;;;;;21.55;5.85;;;;;;;;;;4934363;29;20031;-54
2022/09/22 02:00:04;;;;;;;18.65;5.15;;;;;;;;;;4937010;29;20047;-49
2022/09/22 02:02:43;;;;;;;21.48;5.25;;;;;;;;;;4937984;29;20434;-49
2022/09/22 02:05:14;;;;;;;17.90;4.97;;;;;;;;;;4938297;29;20041;-51
2022/09/22 02:07:45;;;;;;;19.48;5.35;;;;;;;;;;4937908;29;20455;-48
2022/09/22 02:10:16;;;;;;;27.13;5.88;;;;;;;;;;4937996;29;20079;-46
2022/09/22 02:12:43;;;;;;;20.20;5.43;;;;;;;;;;4937754;29;20395;-47
2022/09/22 02:15:58;;;;;;;20.60;5.10;;;;;;;;;;4938109;29;20035;-47
2022/09/22 02:17:59;;;;;;;17.48;4.75;;;;;;;;;;4936908;29;20086;-49
2022/09/22 02:20:25;;;;;;;14.05;4.70;;;;;;;;;;4937936;29;20039;-46
2022/09/22 02:22:53;;;;;;;15.70;4.85;;;;;;;;;;4937741;29;20176;-47
2022/09/22 02:25:22;;;;;;;16.23;4.82;;;;;;;;;;4937258;29;20034;-46
2022/09/22 02:27:50;;;;;;;14.60;5.05;;;;;;;;;;4937326;29;20043;-49
2022/09/22 02:30:17;;;;;;;19.38;5.10;;;;;;;;;;4937193;29;20038;-49
2022/09/22 02:32:46;;;;;;;17.02;3.95;;;;;;;;;;4937236;29;20062;-49
2022/09/22 02:35:13;;;;;;;13.50;4.53;;;;;;;;;;4937268;29;20367;-48
2022/09/22 02:37:52;;;;;;;18.38;4.35;;;;;;;;;;4933130;29;20398;-48
2022/09/22 02:40:30;;;;;;;15.23;4.90;;;;;;;;;;4937075;29;20030;-49
2022/09/22 02:43:01;;;;;;;19.50;4.25;;;;;;;;;;4937575;29;20028;-47
2022/09/22 02:45:34;;;;;;;18.23;4.78;;;;;;;;;;4937615;29;20028;-46
2022/09/22 02:48:30;;;;;;;15.38;4.57;;;;;;;;;;4937630;29;20023;-47
2022/09/22 02:50:57;;;;;;;12.60;4.10;;;;;;;;;;4917857;29;20054;-51
2022/09/22 02:53:24;;;;;;;13.07;4.30;;;;;;;;;;4937303;29;20043;-50
2022/09/22 02:55:52;;;;;;;14.18;3.92;;;;;;;;;;4920608;29;20032;-47
2022/09/22 02:58:19;;;;;;;15.27;4.18;;;;;;;;;;4937326;29;20497;-50
2022/09/22 03:00:45;;;;;;;15.57;4.47;;;;;;;;;;4937479;29;20039;-50
2022/09/22 03:03:13;;;;;;;12.93;4.53;;;;;;;;;;4937610;29;20393;-47
2022/09/22 03:05:40;;;;;;;19.73;4.10;;;;;;;;;;4937175;29;20031;-48
2022/09/22 03:08:07;;;;;;;14.18;4.13;;;;;;;;;;4937126;29;20094;-47
2022/09/22 03:10:34;;;;;;;14.32;3.85;;;;;;;;;;4936351;29;20027;-47
2022/09/22 03:13:01;;;;;;;13.07;4.05;;;;;;;;;;4937237;29;20103;-46
2022/09/22 03:15:28;;;;;;;12.75;4.30;;;;;;;;;;4937146;29;20027;-49
2022/09/22 03:17:55;;;;;;;15.48;4.43;;;;;;;;;;4936772;29;20046;-47
2022/09/22 03:20:22;;;;;;;16.90;4.43;;;;;;;;;;4937023;29;20034;-50
2022/09/22 03:22:49;;;;;;;15.00;3.78;;;;;;;;;;4936383;29;20051;-47
2022/09/22 03:25:16;;;;;;;16.25;3.92;;;;;;;;;;4936958;29;20043;-46
2022/09/22 03:27:43;;;;;;;10.27;3.80;;;;;;;;;;4936672;29;20035;-46
2022/09/22 03:30:10;;;;;;;10.48;3.72;;;;;;;;;;4936941;29;20075;-47
2022/09/22 03:32:37;;;;;;;12.43;3.85;;;;;;;;;;4936639;29;20104;-50
2022/09/22 03:35:04;;;;;;;10.70;3.65;;;;;;;;;;4936781;29;20071;-49
2022/09/22 03:37:32;;;;;;;10.80;3.35;;;;;;;;;;4936528;29;20061;-49
2022/09/22 03:39:59;;;;;;;12.85;3.95;;;;;;;;;;4936729;29;20498;-46
2022/09/22 03:42:26;;;;;;;11.02;3.60;;;;;;;;;;4936416;29;20024;-48
2022/09/22 03:44:53;;;;;;;9.43;3.60;;;;;;;;;;4936562;29;20032;-46
2022/09/22 03:47:20;;;;;;;8.52;3.67;;;;;;;;;;4936365;29;20047;-46
2022/09/22 03:49:47;;;;;;;12.85;4.30;;;;;;;;;;4936494;29;20027;-47
2022/09/22 03:52:14;;;;;;;10.95;3.85;;;;;;;;;;4936301;29;20034;-46
2022/09/22 03:54:41;;;;;;;10.02;3.25;;;;;;;;;;4936440;29;20132;-46
2022/09/22 03:57:08;;;;;;;11.05;3.40;;;;;;;;;;4936191;29;20031;-46
2022/09/22 03:59:35;;;;;;;7.75;3.10;;;;;;;;;;4935963;29;20039;-47
2022/09/22 04:02:03;;;;;;;10.43;3.20;;;;;;;;;;4936307;29;20035;-46
2022/09/22 04:04:31;;;;;;;8.57;3.25;;;;;;;;;;4936086;29;20035;-48
2022/09/22 04:06:58;;;;;;;12.15;3.38;;;;;;;;;;4936143;29;20032;-49
2022/09/22 04:09:25;;;;;;;8.27;2.92;;;;;;;;;;4936082;29;20051;-47
2022/09/22 04:11:52;;;;;;;10.98;2.90;;;;;;;;;;4936167;29;20486;-46
2022/09/22 04:14:19;;;;;;;7.40;2.90;;;;;;;;;;4935898;29;20031;-49
2022/09/22 04:16:46;;;;;;;6.30;3.15;;;;;;;;;;4935993;29;20434;-49
2022/09/22 04:19:14;;;;;;;7.75;2.95;;;;;;;;;;4935895;29;20043;-46
2022/09/22 04:21:42;;;;;;;5.88;2.97;;;;;;;;;;4935455;29;20058;-47
2022/09/22 04:24:09;;;;;;;5.95;2.85;;;;;;;;;;4936014;29;20032;-46
2022/09/22 04:26:37;;;;;;;8.00;3.13;;;;;;;;;;4935803;29;20035;-47
2022/09/22 04:29:03;;;;;;;7.95;2.63;;;;;;;;;;4935789;29;20450;-48
2022/09/22 04:31:30;;;;;;;5.80;3.00;;;;;;;;;;4935615;29;20409;-48
2022/09/22 04:33:57;;;;;;;5.70;2.63;;;;;;;;;;4935739;29;20034;-47
2022/09/22 04:36:24;;;;;;;9.98;2.80;;;;;;;;;;4935651;29;20026;-47
2022/09/22 04:38:51;;;;;;;5.43;2.45;;;;;;;;;;4935548;29;20032;-47
2022/09/22 04:41:18;;;;;;;8.40;2.90;;;;;;;;;;4935779;29;20020;-46
2022/09/22 04:43:45;;;;;;;5.57;2.40;;;;;;;;;;4935696;29;20036;-49
2022/09/22 04:46:12;;;;;;;5.97;2.70;;;;;;;;;;4935447;29;20086;-46
2022/09/22 04:48:39;;;;;;;5.57;2.55;;;;;;;;;;4935509;29;20039;-47
2022/09/22 04:51:06;;;;;;;6.00;2.30;;;;;;;;;;4935582;29;20024;-47
2022/09/22 04:53:33;;;;;;;4.32;2.40;;;;;;;;;;4935522;29;20023;-48
2022/09/22 04:56:00;;;;;;;6.93;2.38;;;;;;;;;;4935426;29;20030;-49
2022/09/22 04:58:27;;;;;;;4.32;2.35;;;;;;;;;;4935281;29;20086;-47
2022/09/22 05:00:54;;;;;;;5.65;2.10;;;;;;;;;;4935480;29;20027;-46
2022/09/22 05:03:21;;;;;;;5.63;2.30;;;;;;;;;;4935507;29;20167;-49
2022/09/22 05:05:48;;;;;;;6.75;2.85;;;;;;;;;;4935449;29;20167;-52
2022/09/22 05:08:15;;;;;;;5.40;2.30;;;;;;;;;;4935192;29;20032;-48
2022/09/22 05:10:42;;;;;;;5.07;2.28;;;;;;;;;;4935380;29;20028;-49
2022/09/22 05:13:10;;;;;;;5.10;2.38;;;;;;;;;;4935379;29;20119;-46
2022/09/22 05:15:37;;;;;;;4.93;2.30;;;;;;;;;;4935315;29;20042;-48
2022/09/22 05:18:04;;;;;;;8.00;2.42;;;;;;;;;;4935043;29;20043;-49
2022/09/22 05:20:31;;;;;;;5.63;2.25;;;;;;;;;;4934165;29;20039;-48
2022/09/22 05:22:58;;;;;;;3.58;2.10;;;;;;;;;;4935057;29;20051;-46
2022/09/22 05:25:25;;;;;;;6.53;2.45;;;;;;;;;;4935244;29;20023;-47
2022/09/22 05:27:54;;;;;;;6.18;2.00;;;;;;;;;;4935118;29;20035;-49
2022/09/22 05:30:22;;;;;;;5.70;2.22;;;;;;;;;;4935255;29;20019;-47
2022/09/22 05:32:49;;;;;;;4.22;2.35;;;;;;;;;;4934987;29;20114;-49
2022/09/22 05:35:18;;;;;;;6.05;2.60;;;;;;;;;;4938145;29;20027;-48
2022/09/22 05:37:45;;;;;;;5.47;2.10;;;;;;;;;;4938673;29;20039;-47
2022/09/22 05:40:13;;;;;;;4.75;2.10;;;;;;;;;;4938840;29;20047;-48
2022/09/22 05:42:44;;;;;;;4.32;2.03;;;;;;;;;;4938865;29;20027;-46
2022/09/22 05:45:11;;;;;;;6.07;2.40;;;;;;;;;;4938661;29;20047;-48
2022/09/22 05:47:39;;;;;;;5.50;2.40;;;;;;;;;;4938539;29;20032;-48
2022/09/22 05:50:06;;;;;;;5.88;2.30;;;;;;;;;;4938717;29;20058;-49
2022/09/22 05:52:33;;;;;;;4.40;1.85;;;;;;;;;;4938647;29;20023;-46
2022/09/22 05:55:00;;;;;;;4.43;2.25;;;;;;;;;;4938635;29;20052;-49
2022/09/22 05:57:27;;;;;;;5.28;2.45;;;;;;;;;;4938470;29;20418;-49
2022/09/22 05:59:55;;;;;;;5.38;2.25;;;;;;;;;;4938445;29;20032;-46
2022/09/22 06:02:22;;;;;;;3.42;1.77;;;;;;;;;;4935031;29;20430;-46
2022/09/22 06:04:50;;;;;;;4.10;1.67;;;;;;;;;;4938335;29;20032;-47
2022/09/22 06:07:21;;;;;;;4.60;2.10;;;;;;;;;;4938380;29;20032;-47
2022/09/22 06:09:48;;;;;;;3.88;1.80;;;;;;;;;;4938407;29;20032;-49
2022/09/22 06:12:15;;;;;;;4.15;1.70;;;;;;;;;;4938350;29;20030;-47
2022/09/22 06:14:43;;;;;;;3.45;1.58;;;;;;;;;;4938405;29;20486;-48
2022/09/22 06:17:10;;;;;;;4.47;1.90;;;;;;;;;;4938027;29;20062;-49
2022/09/22 06:19:38;;;;;;;5.50;1.80;;;;;;;;;;4938235;29;20112;-48
2022/09/22 06:22:05;;;;;;;4.18;1.80;;;;;;;;;;4937703;29;20052;-47
2022/09/22 06:24:33;;;;;;;5.03;1.98;;;;;;;;;;4938190;29;20035;-49
2022/09/22 06:27:00;;;;;;;3.28;1.60;;;;;;;;;;4938094;29;20087;-48
2022/09/22 06:29:27;;;;;;;3.70;1.67;;;;;;;;;;4937967;29;20549;-50
2022/09/22 06:31:54;;;;;;;5.25;1.40;;;;;;;;;;4938052;29;20086;-46
2022/09/22 06:34:22;;;;;;;2.88;1.70;;;;;;;;;;4937919;29;20434;-48
2022/09/22 06:36:49;;;;;;;3.88;1.48;;;;;;;;;;4937794;29;20034;-46
2022/09/22 06:39:16;;;;;;;2.30;1.40;;;;;;;;;;4937705;29;20510;-48
2022/09/22 06:41:43;;;;;;;2.40;1.42;;;;;;;;;;4937701;29;20031;-49
2022/09/22 06:44:11;;;;;;;2.33;1.60;;;;;;;;;;4937845;29;20024;-47
2022/09/22 06:46:38;;;;;;;2.78;1.35;;;;;;;;;;4937409;29;20024;-46
2022/09/22 06:49:05;;;;;;;2.88;1.25;;;;;;;;;;4937512;29;20065;-46
2022/09/22 06:51:33;;;;;;;3.65;1.48;;;;;;;;;;4937624;29;20023;-51
2022/09/22 06:54:03;;;;;;;3.00;1.35;;;;;;;;;;4937601;29;20035;-48
2022/09/22 06:56:33;;;;;;;2.17;1.27;;;;;;;;;;4937498;29;20059;-49
2022/09/22 06:59:00;;;;;;;4.30;1.15;;;;;;;;;;4937255;29;20044;-46
2022/09/22 07:01:29;;;;;;;3.42;1.20;;;;;;;;;;4937421;29;20032;-49
2022/09/22 07:03:56;;;;;;;5.75;1.27;;;;;;;;;;4937328;29;20039;-49
2022/09/22 07:06:23;;;;;;;1.92;0.98;;;;;;;;;;4937331;29;20065;-46
2022/09/22 07:08:50;;;;;;;5.80;1.60;;;;;;;;;;4937202;29;20042;-47
2022/09/22 07:11:22;;;;;;;2.42;1.20;;;;;;;;;;4937209;29;20031;-47
2022/09/22 07:13:50;;;;;;;2.20;1.02;;;;;;;;;;4937139;29;20028;-46
2022/09/22 07:16:18;;;;;;;6.32;1.30;;;;;;;;;;4937171;29;20391;-46
2022/09/22 07:18:46;;;;;;;1.80;1.10;;;;;;;;;;4936919;29;20375;-49
2022/09/22 07:21:14;;;;;;;2.72;1.30;;;;;;;;;;4936915;29;20545;-48
2022/09/22 07:23:42;;;;;;;1.77;1.08;;;;;;;;;;4937081;29;20032;-47
2022/09/22 07:26:14;;;;;;;2.13;1.05;;;;;;;;;;4935644;29;20462;-50
2022/09/22 07:28:41;;;;;;;;;;;;;;;;;;4937190;29;20044;-47
2022/09/22 07:31:09;;;;;;;1.55;0.85;;;;;;;;;;4936804;29;19907;-50
2022/09/22 07:33:36;;;;;;;1.98;1.17;;;;;;;;;;4936809;29;20039;-47
2022/09/22 07:36:06;;;;;;;5.55;1.27;;;;;;;;;;4936775;29;20051;-47
2022/09/22 07:38:35;;;;;;;3.25;1.00;;;;;;;;;;4936552;29;20051;-49
2022/09/22 07:41:03;;;;;;;3.53;0.80;;;;;;;;;;4936611;29;20046;-47
2022/09/22 07:43:30;;;;;;;2.97;0.80;;;;;;;;;;4936583;29;20027;-47
2022/09/22 07:45:57;;;;;;;3.05;1.20;;;;;;;;;;4936595;29;20028;-47
2022/09/22 07:48:40;;;;;;;2.80;1.10;;;;;;;;;;4936439;29;20034;-47
2022/09/22 07:51:09;;;;;;;1.38;0.88;;;;;;;;;;4936720;29;20031;-49
2022/09/22 07:53:36;;;;;;;2.15;1.00;;;;;;;;;;4936456;29;20367;-47
2022/09/22 07:56:11;;;;;;;1.40;0.90;;;;;;;;;;4936276;29;20027;-46
2022/09/22 07:58:48;;;;;;;2.03;0.80;;;;;;;;;;4935908;29;20118;-48
2022/09/22 08:01:16;;;;;;;3.17;0.88;;;;;;;;;;4936286;29;20126;-49
2022/09/22 08:03:45;;;;;;;2.13;0.80;;;;;;;;;;4936296;29;20024;-46
2022/09/22 08:06:13;;;;;;;1.85;0.85;;;;;;;;;;4936123;29;20035;-46
2022/09/22 08:08:42;;;;;;;3.20;1.00;;;;;;;;;;4936071;29;20036;-48
2022/09/22 08:11:13;;;;;;;1.13;0.68;;;;;;;;;;4936202;29;20087;-49
2022/09/22 08:13:52;;;;;;;1.87;0.80;;;;;;;;;;4936102;29;20039;-48
2022/09/22 08:16:21;;;;;;;1.60;0.88;;;;;;;;;;4936046;29;20739;-52
2022/09/22 08:18:55;;;;;;;3.30;0.73;;;;;;;;;;4935768;29;20542;-49
2022/09/22 08:21:34;;;;;;;1.70;0.80;;;;;;;;;;4942534;29;20486;-46
2022/09/22 08:24:01;;;;;;;2.85;0.65;;;;;;;;;;4937567;29;20036;-49
2022/09/22 08:26:28;;;;;;;2.72;0.60;;;;;;;;;;4938863;29;20122;-49
2022/09/22 08:28:56;;;;;;;2.80;0.70;;;;;;;;;;4942922;29;20027;-47
2022/09/22 08:31:24;;;;;;;1.80;0.88;;;;;;;;;;4935841;29;20546;-47
2022/09/22 08:33:52;;;;;;;3.22;0.70;;;;;;;;;;4935880;29;20023;-46
2022/09/22 08:36:20;;;;;;;5.32;0.70;;;;;;;;;;4935776;29;20148;-49
2022/09/22 08:38:48;;;;;;;3.28;0.65;;;;;;;;;;4935486;29;20136;-49
2022/09/22 08:41:23;;;;;;;3.28;0.90;;;;;;;;;;4935715;29;20032;-48
2022/09/22 08:44:14;;;;;;;4.13;0.73;;;;;;;;;;4935743;29;20430;-51
2022/09/22 08:46:42;;;;;;;3.08;0.80;;;;;;;;;;4930866;29;20047;-46
2022/09/22 08:52:19;;;;;;;2.53;0.90;;;;;;;;;;4935618;29;20050;-49
2022/09/22 08:54:47;;;;;;;1.23;0.70;;;;;;;;;;4935537;29;20107;-46
2022/09/22 08:57:14;;;;;;;1.73;0.82;;;;;;;;;;4935205;29;20039;-46
2022/09/22 09:00:16;;;;;;;1.13;0.63;;;;;;;;;;4935467;29;20031;-48
2022/09/22 09:03:01;;;;;;;2.92;0.70;;;;;;;;;;4895547;29;20064;-49
2022/09/22 09:05:46;;;;;;;3.58;0.60;;;;;;;;;;4932506;29;20050;-50
2022/09/22 09:08:28;;;;;;;1.23;0.70;;;;;;;;;;4935313;29;20133;-46
2022/09/22 09:10:56;;;;;;;1.27;0.70;;;;;;;;;;4939457;29;20030;-48
2022/09/22 09:13:41;;;;;;;2.42;0.60;;;;;;;;;;4939406;29;20051;-46
2022/09/22 09:16:08;;;;;;;2.60;0.60;;;;;;;;;;4939366;29;20064;-46
2022/09/22 09:18:38;;;;;;;2.67;0.75;;;;;;;;;;4939159;29;20118;-46
2022/09/22 09:21:08;;;;;;;2.22;0.55;;;;;;;;;;4939218;29;20024;-46
2022/09/22 09:23:41;;;;;;;3.00;0.65;;;;;;;;;;4939237;29;20118;-46
2022/09/22 09:26:08;;;;;;;4.63;0.50;;;;;;;;;;4939201;29;20032;-49
2022/09/22 09:28:41;;;;;;;2.67;0.80;;;;;;;;;;4939045;29;20035;-46
2022/09/22 09:31:21;;;;;;;0.85;0.50;;;;;;;;;;4939036;29;20052;-48
2022/09/22 09:33:51;;;;;;;3.05;0.90;;;;;;;;;;4939049;29;20036;-52
2022/09/22 09:36:21;;;;;;;2.05;0.57;;;;;;;;;;4938939;29;20118;-46
2022/09/22 09:38:58;;;;;;;1.05;0.45;;;;;;;;;;4939025;29;20050;-47
2022/09/22 09:41:32;;;;;;;2.85;0.60;;;;;;;;;;4938935;29;20106;-48
2022/09/22 09:44:00;;;;;;;1.45;0.52;;;;;;;;;;4938922;29;20032;-46
2022/09/22 09:46:53;;;;;;;0.70;0.50;;;;;;;;;;4938696;29;20034;-47
2022/09/22 09:49:22;;;;;;;0.93;0.60;;;;;;;;;;4937020;29;20126;-47
2022/09/22 09:51:51;;;;;;;1.85;0.50;;;;;;;;;;4938713;29;20031;-46
2022/09/22 09:54:19;;;;;;;3.50;0.70;;;;;;;;;;4938609;29;20056;-47
2022/09/22 09:57:05;;;;;;;2.78;0.50;;;;;;;;;;4938521;29;20115;-47
2022/09/22 10:02:29;;;;;;;1.48;0.60;;;;;;;;;;4938759;29;20130;-46
2022/09/22 10:04:58;;;;;;;4.03;0.60;;;;;;;;;;4938476;29;20035;-49
2022/09/22 10:07:27;;;;;;;1.98;0.40;;;;;;;;;;4938450;29;20167;-49
2022/09/22 10:09:55;;;;;;;1.88;0.50;;;;;;;;;;4938430;29;20055;-48
2022/09/22 10:12:22;;;;;;;4.10;0.60;;;;;;;;;;4938324;29;20028;-47
2022/09/22 10:14:52;;;;;;;0.85;0.43;;;;;;;;;;4938295;29;20032;-47
2022/09/22 10:17:24;;;;;;;1.55;0.50;;;;;;;;;;4938083;29;20576;-46
2022/09/22 10:19:51;;;;;;;2.45;0.45;;;;;;;;;;4937927;29;20028;-47
2022/09/22 10:22:22;;;;;;;1.20;0.40;;;;;;;;;;4938044;29;20058;-49
2022/09/22 10:24:56;;;;;;;1.15;0.40;;;;;;;;;;4938087;29;20482;-50
2022/09/22 10:27:24;;;;;;;3.13;0.50;;;;;;;;;;4938035;29;20385;-49
2022/09/22 10:30:11;;;;;;;1.38;0.50;;;;;;;;;;4937799;29;20114;-47
2022/09/22 10:32:38;;;;;;;2.95;0.60;;;;;;;;;;4937881;29;20024;-47
2022/09/22 10:35:23;;;;;;;1.63;0.40;;;;;;;;;;4937774;29;20525;-47
2022/09/22 10:37:51;;;;;;;0.70;0.40;;;;;;;;;;4936700;29;20043;-47
2022/09/22 10:40:18;;;;;;;0.82;0.50;;;;;;;;;;4937884;29;20032;-48
2022/09/22 10:42:47;;;;;;;1.80;0.60;;;;;;;;;;4937822;29;20478;-50
2022/09/22 10:45:15;;;;;;;1.92;0.40;;;;;;;;;;4937690;29;20043;-48
2022/09/22 10:47:57;;;;;;;1.15;0.50;;;;;;;;;;4937688;29;20412;-47
2022/09/22 10:50:26;;;;;;;2.55;0.50;;;;;;;;;;4937609;29;20035;-47
2022/09/22 10:53:16;;;;;;;2.25;0.57;;;;;;;;;;4937840;29;20039;-48
2022/09/22 10:56:12;;;;;;;2.03;0.40;;;;;;;;;;4937578;29;20039;-49
2022/09/22 10:58:55;;;;;;;1.63;0.40;;;;;;;;;;4853956;29;20046;-47
2022/09/22 11:01:28;;;;;;;2.38;0.60;;;;;;;;;;4937433;29;20398;-48
2022/09/22 11:04:01;;;;;;;0.82;0.40;;;;;;;;;;4937405;29;20020;-48
2022/09/22 11:12:17;;;;;;;1.70;0.50;;;;;;;;;;4937561;29;20431;-50
2022/09/22 11:14:44;;;;;;;0.52;0.40;;;;;;;;;;4937153;29;20027;-47
2022/09/22 11:17:17;;;;;;;1.05;0.40;;;;;;;;;;4937042;29;20028;-46
2022/09/22 11:19:54;;;;;;;4.85;0.80;;;;;;;;;;4925492;29;20146;-48
2022/09/22 11:22:31;;;;;;;2.03;0.47;;;;;;;;;;4928200;29;20545;-46
2022/09/22 11:25:04;;;;;;;5.80;0.70;;;;;;;;;;4930021;29;20023;-48
2022/09/22 11:27:35;;;;;;;2.00;0.57;;;;;;;;;;4927723;29;20027;-46
2022/09/22 11:30:08;;;;;;;3.00;0.40;;;;;;;;;;4926855;29;20080;-46
2022/09/22 11:32:47;;;;;;;1.42;0.47;;;;;;;;;;4926795;29;20501;-50
2022/09/22 11:35:32;;;;;;;1.77;0.50;;;;;;;;;;4928866;29;20028;-48
2022/09/22 11:38:01;;;;;;;2.85;0.50;;;;;;;;;;4935328;29;20035;-46
2022/09/22 11:40:33;;;;;;;4.40;0.57;;;;;;;;;;4935825;29;20119;-49
2022/09/22 11:43:24;;;;;;;1.27;0.40;;;;;;;;;;4935744;29;20024;-48
2022/09/22 11:46:03;;;;;;;1.05;0.40;;;;;;;;;;4935536;29;20470;-46
2022/09/22 11:48:30;;;;;;;4.35;0.50;;;;;;;;;;4935513;29;20039;-48
2022/09/22 11:51:15;;;;;;;3.70;0.60;;;;;;;;;;4935788;29;20035;-48
2022/09/22 11:54:02;;;;;;;1.75;0.40;;;;;;;;;;4935836;29;20027;-46
2022/09/22 11:56:40;;;;;;;4.53;0.50;;;;;;;;;;4901545;29;20118;-49
2022/09/22 11:59:33;;;;;;;1.85;0.40;;;;;;;;;;4935912;29;20054;-47
2022/09/22 12:02:03;;;;;;;;;;;;;;;;;;4932674;29;20479;-50
2022/09/22 12:04:30;;;;;;;3.22;0.70;;;;;;;;;;4936193;29;20353;-49
2022/09/22 12:06:57;;;;;;;1.13;0.40;;;;;;;;;;4936095;29;20024;-49
2022/09/22 12:09:37;;;;;;;8.20;0.50;;;;;;;;;;4936303;29;20019;-53
2022/09/22 12:12:05;;;;;;;1.42;0.57;;;;;;;;;;4936248;29;20024;-51
2022/09/22 12:14:32;;;;;;;2.50;0.63;;;;;;;;;;4935823;29;20110;-46
2022/09/22 12:17:09;;;;;;;1.50;0.47;;;;;;;;;;4935773;29;20032;-51
2022/09/22 12:19:54;;;;;;;6.72;0.57;;;;;;;;;;4935949;29;20036;-46
2022/09/22 12:22:26;;;;;;;1.83;0.50;;;;;;;;;;4935796;29;20444;-49
2022/09/22 12:24:55;;;;;;;4.32;0.60;;;;;;;;;;4935443;29;20125;-46
2022/09/22 12:27:26;;;;;;;0.73;0.30;;;;;;;;;;4934005;29;20453;-49
2022/09/22 12:29:54;;;;;;;3.10;0.90;;;;;;;;;;4934045;29;20039;-47
2022/09/22 12:32:23;;;;;;;3.97;0.40;;;;;;;;;;4918527;29;20035;-47
2022/09/22 12:34:51;;;;;;;1.95;0.60;;;;;;;;;;4935774;29;20028;-48
2022/09/22 12:37:31;;;;;;;1.45;0.50;;;;;;;;;;4935541;29;20023;-49
2022/09/22 12:40:14;;;;;;;2.25;0.50;;;;;;;;;;4934524;29;20032;-45
2022/09/22 12:42:43;;;;;;;1.55;0.50;;;;;;;;;;4934911;29;20063;-45
2022/09/22 12:45:28;;;;;;;2.53;0.60;;;;;;;;;;4935275;29;20042;-49
2022/09/22 12:47:56;;;;;;;1.20;0.40;;;;;;;;;;4934074;29;20032;-49
2022/09/22 12:50:23;;;;;;;1.88;0.40;;;;;;;;;;4935219;29;20039;-47
2022/09/22 12:52:50;;;;;;;2.88;0.50;;;;;;;;;;4935207;29;20039;-49
2022/09/22 12:55:29;;;;;;;1.20;0.43;;;;;;;;;;4921141;29;20029;-49
2022/09/22 12:58:02;;;;;;;4.30;0.60;;;;;;;;;;4928082;29;20061;-51
2022/09/22 13:00:42;;;;;;;10.27;0.65;;;;;;;;;;4934746;29;20035;-45
2022/09/22 13:03:29;;;;;;;8.20;1.10;;;;;;;;;;4934906;29;20032;-49
2022/09/22 13:05:59;;;;;;;11.25;0.70;;;;;;;;;;4935293;29;20031;-48
2022/09/22 13:08:45;;;;;;;4.82;0.65;;;;;;;;;;4934699;29;20094;-50
2022/09/22 13:11:12;;;;;;;3.38;0.50;;;;;;;;;;4919234;29;20510;-49
2022/09/22 13:13:49;;;;;;;6.30;0.52;;;;;;;;;;4935329;29;20028;-49
2022/09/22 13:16:16;;;;;;;10.32;0.90;;;;;;;;;;4935522;29;20043;-47
2022/09/22 13:18:44;;;;;;;6.30;0.70;;;;;;;;;;4935105;29;20057;-50
2022/09/22 13:21:15;;;;;;;11.50;0.90;;;;;;;;;;4935130;29;20051;-48
2022/09/22 13:23:54;;;;;;;7.05;0.63;;;;;;;;;;4935261;29;20047;-48
2022/09/22 13:26:37;;;;;;;3.20;0.50;;;;;;;;;;4935227;29;20043;-51
2022/09/22 13:29:20;;;;;;;4.82;0.60;;;;;;;;;;4935250;29;20032;-52
2022/09/22 13:31:50;;;;;;;2.78;0.68;;;;;;;;;;4935294;29;20082;-49
2022/09/22 13:34:21;;;;;;;1.70;0.30;;;;;;;;;;4935125;29;20110;-48
2022/09/22 13:36:48;;;;;;;2.35;0.47;;;;;;;;;;4934984;29;20028;-55
2022/09/22 13:39:19;;;;;;;4.25;0.75;;;;;;;;;;4935106;29;20078;-50
2022/09/22 13:41:49;;;;;;;5.43;0.63;;;;;;;;;;4935137;29;20036;-50
2022/09/22 13:44:19;;;;;;;3.00;0.50;;;;;;;;;;4935039;29;20087;-53
2022/09/22 13:46:48;;;;;;;1.85;0.30;;;;;;;;;;4934531;29;20035;-54
2022/09/22 13:49:29;;;;;;;5.88;0.65;;;;;;;;;;4934682;29;20054;-52
2022/09/22 13:51:58;;;;;;;2.95;0.57;;;;;;;;;;4934684;29;20044;-50
2022/09/22 13:54:27;;;;;;;2.80;0.38;;;;;;;;;;4934836;29;20577;-53
2022/09/22 13:56:56;;;;;;;3.13;0.70;;;;;;;;;;4938243;29;20039;-54
2022/09/22 13:59:24;;;;;;;7.93;0.73;;;;;;;;;;4938214;29;20131;-50
2022/09/22 14:01:51;;;;;;;2.95;0.50;;;;;;;;;;4938329;29;20090;-50
2022/09/22 14:04:23;;;;;;;2.15;0.50;;;;;;;;;;4938274;29;20035;-48
2022/09/22 14:06:51;;;;;;;1.48;0.43;;;;;;;;;;4933724;29;20363;-48
2022/09/22 14:09:18;;;;;;;1.60;0.32;;;;;;;;;;4937217;29;20027;-47
2022/09/22 14:11:46;;;;;;;1.60;0.40;;;;;;;;;;4937766;29;20031;-47
2022/09/22 14:14:23;;;;;;;4.88;0.80;;;;;;;;;;4938045;29;20039;-46
2022/09/22 14:16:50;;;;;;;6.88;0.90;;;;;;;;;;4937973;29;20031;-47
2022/09/22 14:19:19;;;;;;;21.35;1.90;;;;;;;;;;4937973;29;20138;-46
2022/09/22 14:21:51;;;;;;;14.27;0.85;;;;;;;;;;4937778;29;20055;-46
2022/09/22 14:24:18;;;;;;;12.00;1.25;;;;;;;;;;4937799;29;20126;-47
2022/09/22 14:26:47;;;;;;;12.38;1.15;;;;;;;;;;4937672;29;20031;-50
2022/09/22 14:29:16;;;;;;;8.30;1.10;;;;;;;;;;4937845;29;20083;-47
2022/09/22 14:31:44;;;;;;;8.27;1.15;;;;;;;;;;4937551;29;20600;-48
2022/09/22 14:34:14;;;;;;;11.70;1.30;;;;;;;;;;4937489;29;20031;-49
2022/09/22 14:36:43;;;;;;;10.23;1.48;;;;;;;;;;4937386;29;20478;-49
2022/09/22 14:39:17;;;;;;;10.55;1.50;;;;;;;;;;4937654;29;20118;-48
2022/09/22 14:41:50;;;;;;;13.88;1.60;;;;;;;;;;4936731;29;20051;-51
2022/09/22 14:44:37;;;;;;;10.15;1.40;;;;;;;;;;4937541;29;20044;-47
2022/09/22 14:47:24;;;;;;;5.65;1.13;;;;;;;;;;4937309;29;20034;-51
2022/09/22 14:50:10;;;;;;;8.57;1.20;;;;;;;;;;4936873;29;20391;-46
2022/09/22 14:52:39;;;;;;;10.57;1.00;;;;;;;;;;4937449;29;20489;-47
2022/09/22 14:55:28;;;;;;;7.97;1.13;;;;;;;;;;4936975;29;20059;-46
2022/09/22 14:57:55;;;;;;;13.85;1.40;;;;;;;;;;4937096;29;20074;-46
2022/09/22 15:03:14;;;;;;;9.15;1.30;;;;;;;;;;4937019;29;20042;-47
2022/09/22 15:05:43;;;;;;;14.10;2.13;;;;;;;;;;4936952;29;20030;-46
2022/09/22 15:08:17;;;;;;;11.52;1.92;;;;;;;;;;4935482;29;20027;-47
2022/09/22 15:10:51;;;;;;;23.75;2.50;;;;;;;;;;4936609;29;20082;-49
2022/09/22 15:13:30;;;;;;;17.20;1.98;;;;;;;;;;4937275;29;20391;-47
2022/09/22 15:15:57;;;;;;;15.88;2.13;;;;;;;;;;4936568;29;20588;-47
2022/09/22 15:18:24;;;;;;;20.98;2.03;;;;;;;;;;4936555;29;20516;-49